createdAt,value
2024-04-06T00:00:10.726Z,2.53
2024-04-06T00:02:42.542Z,2.10
2024-04-06T00:05:11.062Z,2.78
2024-04-06T00:07:38.145Z,2.30
2024-04-06T00:10:06.382Z,1.70
2024-04-06T00:12:46.651Z,2.17
2024-04-06T00:15:13.786Z,2.10
2024-04-06T00:17:41.752Z,2.13
2024-04-06T00:20:09.225Z,2.53
2024-04-06T00:22:36.340Z,2.38
2024-04-06T00:25:05.175Z,2.03
2024-04-06T00:27:34.094Z,2.13
2024-04-06T00:30:04.405Z,1.83
2024-04-06T00:32:31.966Z,2.28
2024-04-06T00:34:59.973Z,2.40
2024-04-06T00:37:27.198Z,1.77
2024-04-06T00:39:54.428Z,2.10
2024-04-06T00:42:21.669Z,2.03
2024-04-06T00:44:48.843Z,1.92
2024-04-06T00:47:20.116Z,2.20
2024-04-06T00:49:47.313Z,1.92
2024-04-06T00:52:14.431Z,2.00
2024-04-06T00:54:57.229Z,2.25
2024-04-06T00:57:24.535Z,1.95
2024-04-06T00:59:52.705Z,2.30
2024-04-06T01:02:24.293Z,2.15
2024-04-06T01:04:56.191Z,2.13
2024-04-06T01:07:24.006Z,2.15
2024-04-06T01:09:52.223Z,1.90
2024-04-06T01:12:20.498Z,2.42
2024-04-06T01:14:48.071Z,2.20
2024-04-06T01:17:17.019Z,2.22
2024-04-06T01:19:48.306Z,2.42
2024-04-06T01:22:15.448Z,1.85
2024-04-06T01:24:46.928Z,2.40
2024-04-06T01:27:14.060Z,2.58
2024-04-06T01:29:41.451Z,1.90
2024-04-06T01:32:09.801Z,2.75
2024-04-06T01:34:38.746Z,2.03
2024-04-06T01:37:21.771Z,2.15
2024-04-06T01:39:51.833Z,2.33
2024-04-06T01:42:18.956Z,2.53
2024-04-06T01:44:46.447Z,2.00
2024-04-06T01:47:13.578Z,2.28
2024-04-06T01:49:41.986Z,2.28
2024-04-06T01:52:09.544Z,2.30
2024-04-06T01:54:37.836Z,2.70
2024-04-06T01:57:07.530Z,2.13
2024-04-06T01:59:36.467Z,2.47
2024-04-06T02:02:05.974Z,2.42
2024-04-06T02:04:33.227Z,2.97
2024-04-06T02:07:00.879Z,2.03
2024-04-06T02:09:28.010Z,1.85
2024-04-06T02:12:12.016Z,2.00
2024-04-06T02:14:49.159Z,1.88
2024-04-06T02:17:17.584Z,2.22
2024-04-06T02:19:44.922Z,1.98
2024-04-06T02:22:12.033Z,1.63
2024-04-06T02:24:39.536Z,1.70
2024-04-06T02:27:06.879Z,2.03
2024-04-06T02:29:34.030Z,2.13
2024-04-06T02:32:04.367Z,1.80
2024-04-06T02:34:31.818Z,1.63
2024-04-06T02:36:59.470Z,1.45
2024-04-06T02:39:27.034Z,1.70
2024-04-06T02:41:54.230Z,1.50
2024-04-06T02:44:22.082Z,1.80
2024-04-06T02:46:50.333Z,1.92
2024-04-06T02:49:23.387Z,1.48
2024-04-06T02:51:51.560Z,1.60
2024-04-06T02:54:35.112Z,1.42
2024-04-06T02:57:02.228Z,1.27
2024-04-06T02:59:29.376Z,1.80
2024-04-06T03:01:56.952Z,1.70
2024-04-06T03:04:26.586Z,1.42
2024-04-06T03:06:53.687Z,1.50
2024-04-06T03:09:20.785Z,1.52
2024-04-06T03:11:47.922Z,1.75
2024-04-06T03:14:15.076Z,1.98
2024-04-06T03:16:42.169Z,1.60
2024-04-06T03:19:09.763Z,1.75
2024-04-06T03:21:39.468Z,1.30
2024-04-06T03:24:07.869Z,1.50
2024-04-06T03:26:35.525Z,1.45
2024-04-06T03:29:02.647Z,1.38
2024-04-06T03:31:30.331Z,1.52
2024-04-06T03:33:58.175Z,1.75
2024-04-06T03:36:42.721Z,1.50
2024-04-06T03:39:09.914Z,1.30
2024-04-06T03:41:37.059Z,1.38
2024-04-06T03:44:04.608Z,1.30
2024-04-06T03:46:32.085Z,1.40
2024-04-06T03:48:59.221Z,1.73
2024-04-06T03:51:26.303Z,1.30
2024-04-06T03:53:55.841Z,1.17
2024-04-06T03:56:22.977Z,1.48
2024-04-06T03:58:52.475Z,1.20
2024-04-06T04:01:19.863Z,1.15
2024-04-06T04:03:47.411Z,1.20
2024-04-06T04:06:16.163Z,1.33
2024-04-06T04:08:44.972Z,1.42
2024-04-06T04:11:15.077Z,1.30
2024-04-06T04:13:42.797Z,1.33
2024-04-06T04:16:10.446Z,1.27
2024-04-06T04:18:53.330Z,1.45
2024-04-06T04:21:20.435Z,1.42
2024-04-06T04:23:47.570Z,1.65
2024-04-06T04:26:17.129Z,1.00
2024-04-06T04:28:44.550Z,1.10
2024-04-06T04:31:16.426Z,1.33
2024-04-06T04:33:44.024Z,1.45
2024-04-06T04:36:14.070Z,1.48
2024-04-06T04:38:41.251Z,2.08
2024-04-06T04:41:08.780Z,1.20
2024-04-06T04:43:38.407Z,1.35
2024-04-06T04:46:06.008Z,1.45
2024-04-06T04:48:53.468Z,1.27
2024-04-06T04:51:21.800Z,1.90
2024-04-06T04:54:00.895Z,1.75
2024-04-06T04:56:28.001Z,1.38
2024-04-06T04:58:57.719Z,1.60
2024-04-06T05:01:24.927Z,1.58
2024-04-06T05:03:52.113Z,1.80
2024-04-06T05:06:19.250Z,1.55
2024-04-06T05:08:46.355Z,2.00
2024-04-06T05:11:16.670Z,1.67
2024-04-06T05:13:44.483Z,1.92
2024-04-06T05:16:14.497Z,1.88
2024-04-06T05:18:41.635Z,1.50
2024-04-06T05:21:09.746Z,1.65
2024-04-06T05:23:36.939Z,1.70
2024-04-06T05:26:05.055Z,1.75
2024-04-06T05:28:32.864Z,2.05
2024-04-06T05:31:00.614Z,1.92
2024-04-06T05:33:30.196Z,2.13
2024-04-06T05:36:18.042Z,1.73
2024-04-06T05:38:46.758Z,1.52
2024-04-06T05:43:42.048Z,1.55
2024-04-06T05:46:09.350Z,1.55
2024-04-06T05:48:41.570Z,1.92
2024-04-06T05:51:08.711Z,1.63
2024-04-06T05:53:36.494Z,1.92
2024-04-06T05:56:04.096Z,1.90
2024-04-06T05:58:33.551Z,2.28
2024-04-06T06:01:02.581Z,2.30
2024-04-06T06:03:30.174Z,1.92
2024-04-06T06:06:00.296Z,2.08
2024-04-06T06:08:27.953Z,2.13
2024-04-06T06:10:55.081Z,2.17
2024-04-06T06:13:23.996Z,2.42
2024-04-06T06:15:51.771Z,1.90
2024-04-06T06:18:29.198Z,1.98
2024-04-06T06:20:56.329Z,2.03
2024-04-06T06:23:25.976Z,2.05
2024-04-06T06:25:53.131Z,2.10
2024-04-06T06:28:20.279Z,1.80
2024-04-06T06:30:48.019Z,1.80
2024-04-06T06:33:15.126Z,1.77
2024-04-06T06:38:27.939Z,1.50
2024-04-06T06:40:55.082Z,2.03
2024-04-06T06:43:26.143Z,1.95
2024-04-06T06:45:53.219Z,1.45
2024-04-06T06:48:20.304Z,1.42
2024-04-06T06:50:48.036Z,1.60
2024-04-06T06:53:56.266Z,1.73
2024-04-06T06:56:25.875Z,1.77
2024-04-06T06:58:53.160Z,1.75
2024-04-06T07:01:20.284Z,1.75
2024-04-06T07:03:47.437Z,1.63
2024-04-06T07:07:06.538Z,1.35
2024-04-06T07:09:03.272Z,1.13
2024-04-06T07:11:32.977Z,1.60
2024-04-06T07:14:00.824Z,1.30
2024-04-06T07:16:29.973Z,1.38
2024-04-06T07:18:57.099Z,1.48
2024-04-06T07:21:53.285Z,1.17
2024-04-06T07:24:22.559Z,1.45
2024-04-06T07:26:52.232Z,1.25
2024-04-06T07:29:20.452Z,1.33
2024-04-06T07:31:47.551Z,1.45
2024-04-06T07:34:14.721Z,1.20
2024-04-06T07:36:42.156Z,1.15
2024-04-06T07:41:46.340Z,1.02
2024-04-06T07:44:20.193Z,1.60
2024-04-06T07:46:47.469Z,1.30
2024-04-06T07:49:14.614Z,1.20
2024-04-06T07:51:46.799Z,1.52
2024-04-06T07:54:14.613Z,1.35
2024-04-06T07:56:56.631Z,0.93
2024-04-06T07:59:26.199Z,1.73
2024-04-06T08:01:53.409Z,1.25
2024-04-06T08:04:20.512Z,1.20
2024-04-06T08:06:47.604Z,1.17
2024-04-06T08:09:14.733Z,1.40
2024-04-06T08:11:46.244Z,1.30
2024-04-06T08:14:20.896Z,0.98
2024-04-06T08:17:06.880Z,1.17
2024-04-06T08:19:34.416Z,1.52
2024-04-06T08:22:02.919Z,1.40
2024-04-06T08:24:29.986Z,1.30
2024-04-06T08:27:00.588Z,1.00
2024-04-06T08:29:28.514Z,1.20
2024-04-06T08:32:11.247Z,1.30
2024-04-06T08:34:38.873Z,1.27
2024-04-06T08:37:08.241Z,1.00
2024-04-06T08:39:35.338Z,1.05
2024-04-06T08:42:03.345Z,1.05
2024-04-06T08:44:40.729Z,0.80
2024-04-06T08:47:13.792Z,1.00
2024-04-06T08:49:42.025Z,1.30
2024-04-06T08:52:10.547Z,1.75
2024-04-06T08:54:38.287Z,0.88
2024-04-06T08:59:34.194Z,1.20
2024-04-06T09:02:01.598Z,1.13
2024-04-06T09:04:31.471Z,1.05
2024-04-06T09:07:11.894Z,1.25
2024-04-06T09:09:40.126Z,1.65
2024-04-06T09:12:09.079Z,0.93
2024-04-06T09:14:40.454Z,1.10
2024-04-06T09:17:10.516Z,1.02
2024-04-06T09:19:40.104Z,1.27
2024-04-06T09:22:07.281Z,1.30
2024-04-06T09:24:34.616Z,0.90
2024-04-06T09:27:06.302Z,1.30
2024-04-06T09:29:33.455Z,1.55
2024-04-06T09:32:11.815Z,1.00
2024-04-06T09:34:49.429Z,1.17
2024-04-06T09:37:20.931Z,0.90
2024-04-06T09:39:49.157Z,1.05
2024-04-06T09:42:18.416Z,1.45
2024-04-06T09:44:45.636Z,0.95
2024-04-06T09:47:15.352Z,1.30
2024-04-06T09:49:45.955Z,1.10
2024-04-06T09:52:17.324Z,1.27
2024-04-06T09:54:44.694Z,1.08
2024-04-06T09:57:13.640Z,1.10
2024-04-06T09:59:41.326Z,1.23
2024-04-06T10:02:09.260Z,1.42
2024-04-06T10:07:07.585Z,0.88
2024-04-06T10:09:38.787Z,1.20
2024-04-06T10:12:10.143Z,1.15
2024-04-06T10:14:45.298Z,1.10
2024-04-06T10:17:41.567Z,0.98
2024-04-06T10:20:11.379Z,1.00
2024-04-06T10:22:51.610Z,1.35
2024-04-06T10:25:24.309Z,1.00
2024-04-06T10:28:00.054Z,0.90
2024-04-06T10:30:28.356Z,0.88
2024-04-06T10:32:55.623Z,1.23
2024-04-06T10:35:23.227Z,1.27
2024-04-06T10:37:53.608Z,1.20
2024-04-06T10:40:24.425Z,0.90
2024-04-06T10:42:51.975Z,1.10
2024-04-06T10:45:32.412Z,1.02
2024-04-06T10:47:59.777Z,0.80
2024-04-06T10:50:26.967Z,1.10
2024-04-06T10:52:56.689Z,0.70
2024-04-06T10:55:24.097Z,0.80
2024-04-06T10:57:51.312Z,1.13
2024-04-06T11:00:19.316Z,0.82
2024-04-06T11:02:46.388Z,1.05
2024-04-06T11:05:13.493Z,0.95
2024-04-06T11:07:42.270Z,0.90
2024-04-06T11:10:12.194Z,0.80
2024-04-06T11:12:39.913Z,1.00
2024-04-06T11:15:08.822Z,1.08
2024-04-06T11:17:36.253Z,1.10
2024-04-06T11:20:05.166Z,1.30
2024-04-06T11:22:32.263Z,1.00
2024-04-06T11:24:59.869Z,0.90
2024-04-06T11:27:29.569Z,1.05
2024-04-06T11:30:01.174Z,1.10
2024-04-06T11:32:30.161Z,1.00
2024-04-06T11:34:57.464Z,0.88
2024-04-06T11:37:25.687Z,0.85
2024-04-06T11:39:52.850Z,0.70
2024-04-06T11:42:19.975Z,0.95
2024-04-06T11:44:49.567Z,0.90
2024-04-06T11:47:16.696Z,1.08
2024-04-06T11:49:43.902Z,0.82
2024-04-06T11:52:11.072Z,0.82
2024-04-06T11:54:38.575Z,0.60
2024-04-06T11:57:06.015Z,0.73
2024-04-06T11:59:33.110Z,0.75
2024-04-06T12:02:02.844Z,1.05
2024-04-06T12:04:32.753Z,0.80
2024-04-06T12:07:01.384Z,0.70
2024-04-06T12:09:28.547Z,0.75
2024-04-06T12:11:59.169Z,0.70
2024-04-06T12:14:26.493Z,0.70
2024-04-06T12:16:54.577Z,1.00
2024-04-06T12:19:26.971Z,0.90
2024-04-06T12:21:54.485Z,1.02
2024-04-06T12:24:21.784Z,0.82
2024-04-06T12:26:48.919Z,1.00
2024-04-06T12:29:16.043Z,1.00
2024-04-06T12:31:43.140Z,0.82
2024-04-06T12:34:10.258Z,0.88
2024-04-06T12:36:39.923Z,0.73
2024-04-06T12:39:10.369Z,0.63
2024-04-06T12:41:37.496Z,0.90
2024-04-06T12:44:05.054Z,0.60
2024-04-06T12:46:32.240Z,0.50
2024-04-06T12:48:59.339Z,1.50
2024-04-06T12:51:29.430Z,0.73
2024-04-06T12:53:59.055Z,1.05
2024-04-06T12:56:26.957Z,0.80
2024-04-06T13:01:21.093Z,0.80
2024-04-06T13:03:59.726Z,0.63
2024-04-06T13:06:32.111Z,0.85
2024-04-06T13:11:28.635Z,0.82
2024-04-06T13:13:55.754Z,0.80
2024-04-06T13:16:22.987Z,0.70
2024-04-06T13:18:50.118Z,1.05
2024-04-06T13:21:17.626Z,0.63
2024-04-06T13:23:44.715Z,0.85
2024-04-06T13:26:14.391Z,0.60
2024-04-06T13:28:41.594Z,0.70
2024-04-06T13:31:09.175Z,0.65
2024-04-06T13:33:37.833Z,1.00
2024-04-06T13:36:06.048Z,0.52
2024-04-06T13:38:33.235Z,0.52
2024-04-06T13:41:00.335Z,0.45
2024-04-06T13:43:30.227Z,0.60
2024-04-06T13:45:58.950Z,0.57
2024-04-06T13:48:26.146Z,0.60
2024-04-06T13:50:55.652Z,0.60
2024-04-06T13:53:22.999Z,0.73
2024-04-06T13:55:50.323Z,0.60
2024-04-06T13:58:17.570Z,0.60
2024-04-06T14:00:47.217Z,0.60
2024-04-06T14:03:14.322Z,0.65
2024-04-06T14:05:41.542Z,0.73
2024-04-06T14:08:08.746Z,0.60
2024-04-06T14:10:35.867Z,0.70
2024-04-06T14:13:03.064Z,0.90
2024-04-06T14:15:30.186Z,0.80
2024-04-06T14:17:59.838Z,0.52
2024-04-06T14:20:27.376Z,0.68
2024-04-06T14:22:54.522Z,0.65
2024-04-06T14:25:21.956Z,0.80
2024-04-06T14:27:49.224Z,0.40
2024-04-06T14:30:45.576Z,1.02
2024-04-06T14:33:15.266Z,0.50
2024-04-06T14:35:42.458Z,0.70
2024-04-06T14:38:10.039Z,1.05
2024-04-06T14:40:37.163Z,0.80
2024-04-06T14:43:04.733Z,0.57
2024-04-06T14:45:31.881Z,0.50
2024-04-06T14:47:59.066Z,0.55
2024-04-06T14:50:28.727Z,0.40
2024-04-06T14:52:55.828Z,0.80
2024-04-06T14:55:23.125Z,0.60
2024-04-06T14:57:50.297Z,0.90
2024-04-06T15:00:18.132Z,0.65
2024-04-06T15:02:45.320Z,0.80
2024-04-06T15:05:12.494Z,0.80
2024-04-06T15:07:42.137Z,0.70
2024-04-06T15:10:09.664Z,0.70
2024-04-06T15:12:36.853Z,1.10
2024-04-06T15:15:05.831Z,0.80
2024-04-06T15:17:35.046Z,0.60
2024-04-06T15:20:02.462Z,0.60
2024-04-06T15:22:29.579Z,0.73
2024-04-06T15:24:59.191Z,0.80
2024-04-06T15:27:26.318Z,0.60
2024-04-06T15:29:53.409Z,0.90
2024-04-06T15:32:20.664Z,0.70
2024-04-06T15:34:47.789Z,0.60
2024-04-06T15:37:16.713Z,0.73
2024-04-06T15:39:43.984Z,0.90
2024-04-06T15:42:15.515Z,0.90
2024-04-06T15:44:42.749Z,0.98
2024-04-06T15:47:09.890Z,0.80
2024-04-06T15:49:37.042Z,0.90
2024-04-06T15:52:04.665Z,1.10
2024-04-06T15:54:31.773Z,0.93
2024-04-06T15:56:59.562Z,0.70
2024-04-06T15:59:29.135Z,0.80
2024-04-06T16:01:57.057Z,0.70
2024-04-06T16:04:25.515Z,0.60
2024-04-06T16:06:54.050Z,0.70
2024-04-06T16:09:22.925Z,0.88
2024-04-06T16:11:52.463Z,0.90
2024-04-06T16:14:19.590Z,0.73
2024-04-06T16:16:49.226Z,0.82
2024-04-06T16:19:16.316Z,0.93
2024-04-06T16:21:43.635Z,0.90
2024-04-06T16:24:10.802Z,0.82
2024-04-06T16:26:37.945Z,0.60
2024-04-06T16:29:05.100Z,1.25
2024-04-06T16:31:33.200Z,0.77
2024-04-06T16:36:29.796Z,0.80
2024-04-06T16:38:56.895Z,0.70
2024-04-06T16:41:24.803Z,0.90
2024-04-06T16:43:52.031Z,1.20
2024-04-06T16:46:19.823Z,1.25
2024-04-06T16:48:46.943Z,0.80
2024-04-06T16:51:16.618Z,0.88
2024-04-06T16:53:43.917Z,0.80
2024-04-06T16:56:11.330Z,1.13
2024-04-06T16:58:38.454Z,0.80
2024-04-06T17:01:05.598Z,0.90
2024-04-06T17:03:32.772Z,0.95
2024-04-06T17:06:00.967Z,1.00
2024-04-06T17:08:30.573Z,1.50
2024-04-06T17:10:57.683Z,1.42
2024-04-06T17:13:25.328Z,0.90
2024-04-06T17:15:52.452Z,0.82
2024-04-06T17:18:19.611Z,0.88
2024-04-06T17:20:46.731Z,0.90
2024-04-06T17:23:14.967Z,0.70
2024-04-06T17:28:11.511Z,0.57
2024-04-06T17:30:39.439Z,1.00
2024-04-06T17:33:06.875Z,0.88
2024-04-06T17:35:34.094Z,1.20
2024-04-06T17:38:01.955Z,1.02
2024-04-06T17:40:29.230Z,0.88
2024-04-06T17:42:58.813Z,0.77
2024-04-06T17:45:26.549Z,0.90
2024-04-06T17:47:53.778Z,0.80
2024-04-06T17:50:21.399Z,0.82
2024-04-06T17:52:48.612Z,0.90
2024-04-06T17:55:17.170Z,0.98
2024-04-06T17:57:44.532Z,0.77
2024-04-06T18:00:15.944Z,0.80
2024-04-06T18:02:44.767Z,0.88
2024-04-06T18:05:11.887Z,0.93
2024-04-06T18:07:39.008Z,1.17
2024-04-06T18:10:08.846Z,1.02
2024-04-06T18:12:36.086Z,0.70
2024-04-06T18:15:04.586Z,1.10
2024-04-06T18:17:34.170Z,1.00
2024-04-06T18:20:01.333Z,0.90
2024-04-06T18:22:28.764Z,0.70
2024-04-06T18:24:57.448Z,0.80
2024-04-06T18:27:27.163Z,1.00
2024-04-06T18:29:54.556Z,0.63
2024-04-06T18:32:21.917Z,0.70
2024-04-06T18:34:54.028Z,0.90
2024-04-06T18:37:21.208Z,1.17
2024-04-06T18:39:51.050Z,1.00
2024-04-06T18:42:18.238Z,0.98
2024-04-06T18:44:45.395Z,0.70
2024-04-06T18:47:12.639Z,0.85
2024-04-06T18:49:40.026Z,1.02
2024-04-06T18:52:09.663Z,1.08
2024-04-06T18:54:36.812Z,0.98
2024-04-06T18:57:04.220Z,0.90
2024-04-06T18:59:31.311Z,0.73
2024-04-06T19:01:58.451Z,0.80
2024-04-06T19:04:28.021Z,1.20
2024-04-06T19:06:56.044Z,1.52
2024-04-06T19:09:27.177Z,1.13
2024-04-06T19:11:54.988Z,1.10
2024-04-06T19:14:22.174Z,1.30
2024-04-06T19:16:52.798Z,0.98
2024-04-06T19:19:19.892Z,1.25
2024-04-06T19:21:47.449Z,0.98
2024-04-06T19:24:14.641Z,2.20
2024-04-06T19:26:44.548Z,1.10
2024-04-06T19:29:12.947Z,1.05
2024-04-06T19:31:41.692Z,0.90
2024-04-06T19:34:10.550Z,1.13
2024-04-06T19:36:37.877Z,1.00
2024-04-06T19:39:08.374Z,1.20
2024-04-06T19:41:35.996Z,1.02
2024-04-06T19:44:05.808Z,1.35
2024-04-06T19:46:33.010Z,0.90
2024-04-06T19:49:00.116Z,1.10
2024-04-06T19:51:27.312Z,1.35
2024-04-06T19:53:54.412Z,1.25
2024-04-06T19:56:21.567Z,1.58
2024-04-06T19:58:50.322Z,1.00
2024-04-06T20:01:20.639Z,1.05
2024-04-06T20:03:47.756Z,1.10
2024-04-06T20:06:14.868Z,1.02
2024-04-06T20:08:42.009Z,1.00
2024-04-06T20:11:09.895Z,1.33
2024-04-06T20:13:37.787Z,1.00
2024-04-06T20:16:05.336Z,0.95
2024-04-06T20:18:34.940Z,1.33
2024-04-06T20:21:03.732Z,1.20
2024-04-06T20:23:49.655Z,1.15
2024-04-06T20:28:44.270Z,1.38
2024-04-06T20:31:12.393Z,1.10
2024-04-06T20:33:42.027Z,1.23
2024-04-06T20:36:09.372Z,1.33
2024-04-06T20:38:36.486Z,1.50
2024-04-06T20:41:04.017Z,1.20
2024-04-06T20:43:31.144Z,1.50
2024-04-06T20:45:58.355Z,1.67
2024-04-06T20:50:55.446Z,1.50
2024-04-06T20:53:22.647Z,1.80
2024-04-06T20:55:50.231Z,1.50
2024-04-06T20:58:17.387Z,1.20
2024-04-06T21:00:44.664Z,1.30
2024-04-06T21:03:12.080Z,1.48
2024-04-06T21:05:39.157Z,1.42
2024-04-06T21:08:08.963Z,1.55
2024-04-06T21:10:36.819Z,1.30
2024-04-06T21:13:04.807Z,1.35
2024-04-06T21:15:31.944Z,1.90
2024-04-06T21:17:59.147Z,1.80
2024-04-06T21:20:26.360Z,1.50
2024-04-06T21:22:54.213Z,1.70
2024-04-06T21:25:23.897Z,1.92
2024-04-06T21:27:51.024Z,1.50
2024-04-06T21:30:18.571Z,1.55
2024-04-06T21:32:48.056Z,1.35
2024-04-06T21:35:16.327Z,1.38
2024-04-06T21:37:46.795Z,1.48
2024-04-06T21:40:14.070Z,1.58
2024-04-06T21:42:44.670Z,1.17
2024-04-06T21:45:13.912Z,1.70
2024-04-06T21:47:41.033Z,1.63
2024-04-06T21:50:08.753Z,1.17
2024-04-06T21:52:35.905Z,1.40
2024-04-06T21:55:04.036Z,1.38
2024-04-06T21:57:31.247Z,2.20
2024-04-06T22:00:00.827Z,1.30
2024-04-06T22:02:27.938Z,1.42
2024-04-06T22:04:55.083Z,1.50
2024-04-06T22:07:22.192Z,1.58
2024-04-06T22:09:49.384Z,1.80
2024-04-06T22:12:16.541Z,1.50
2024-04-06T22:14:44.577Z,1.58
2024-04-06T22:17:14.217Z,1.73
2024-04-06T22:19:41.949Z,1.42
2024-04-06T22:22:09.198Z,1.75
2024-04-06T22:24:36.374Z,1.30
2024-04-06T22:27:04.728Z,1.30
2024-04-06T22:29:34.319Z,1.58
2024-04-06T22:32:01.500Z,1.73
2024-04-06T22:34:31.346Z,1.48
2024-04-06T22:36:58.470Z,1.58
2024-04-06T22:39:25.561Z,1.70
2024-04-06T22:41:52.760Z,1.50
2024-04-06T22:44:20.919Z,1.88
2024-04-06T22:46:48.193Z,1.60
2024-04-06T22:49:16.190Z,1.70
2024-04-06T22:51:45.892Z,1.60
2024-04-06T22:54:13.576Z,1.52
2024-04-06T22:56:40.821Z,1.50
2024-04-06T22:59:07.910Z,1.45
2024-04-06T23:01:35.575Z,1.60
2024-04-06T23:04:02.706Z,1.77
2024-04-06T23:06:29.858Z,1.83
2024-04-06T23:08:59.476Z,2.00
2024-04-06T23:11:26.596Z,1.63
2024-04-06T23:13:53.871Z,1.58
2024-04-06T23:16:21.107Z,1.90
2024-04-06T23:18:48.195Z,1.60
2024-04-06T23:21:15.270Z,1.75
2024-04-06T23:23:42.396Z,1.45
2024-04-06T23:26:11.958Z,1.63
2024-04-06T23:28:39.143Z,1.58
2024-04-06T23:31:06.649Z,1.70
2024-04-06T23:33:34.294Z,1.80
2024-04-06T23:36:04.153Z,1.30
2024-04-06T23:38:31.512Z,1.80
2024-04-06T23:40:59.735Z,1.77
2024-04-06T23:43:29.385Z,1.60
2024-04-06T23:45:56.910Z,1.55
2024-04-06T23:48:24.128Z,1.80
2024-04-06T23:50:54.292Z,1.50
2024-04-06T23:53:21.554Z,1.90
2024-04-06T23:55:48.751Z,1.80
2024-04-06T23:58:15.990Z,1.60
